sensor_id;sensor_type;location;lat;lon;timestamp;temperature;humidity
40534;DHT22;26233;51.894;10.192;2024-02-15T00:01:42;12.80;57.30
40534;DHT22;26233;51.894;10.192;2024-02-15T00:04:09;12.80;57.40
40534;DHT22;26233;51.894;10.192;2024-02-15T00:06:37;12.90;57.50
40534;DHT22;26233;51.894;10.192;2024-02-15T00:09:04;12.90;57.50
40534;DHT22;26233;51.894;10.192;2024-02-15T00:11:33;12.80;57.40
40534;DHT22;26233;51.894;10.192;2024-02-15T00:14:00;12.90;57.50
40534;DHT22;26233;51.894;10.192;2024-02-15T00:16:27;12.90;57.50
40534;DHT22;26233;51.894;10.192;2024-02-15T00:18:55;12.90;57.50
40534;DHT22;26233;51.894;10.192;2024-02-15T00:21:22;12.90;57.50
40534;DHT22;26233;51.894;10.192;2024-02-15T00:23:50;12.90;57.50
40534;DHT22;26233;51.894;10.192;2024-02-15T00:26:21;13.00;57.60
40534;DHT22;26233;51.894;10.192;2024-02-15T00:28:50;13.00;57.70
40534;DHT22;26233;51.894;10.192;2024-02-15T00:31:17;13.00;57.60
40534;DHT22;26233;51.894;10.192;2024-02-15T00:33:44;13.00;57.60
40534;DHT22;26233;51.894;10.192;2024-02-15T00:36:12;13.00;57.70
40534;DHT22;26233;51.894;10.192;2024-02-15T00:38:39;13.00;57.70
40534;DHT22;26233;51.894;10.192;2024-02-15T00:41:08;13.00;57.60
40534;DHT22;26233;51.894;10.192;2024-02-15T00:43:36;13.00;57.60
40534;DHT22;26233;51.894;10.192;2024-02-15T00:46:04;13.00;57.70
40534;DHT22;26233;51.894;10.192;2024-02-15T00:48:32;13.00;57.60
40534;DHT22;26233;51.894;10.192;2024-02-15T00:50:59;13.00;57.60
40534;DHT22;26233;51.894;10.192;2024-02-15T00:53:26;13.00;57.60
40534;DHT22;26233;51.894;10.192;2024-02-15T00:55:53;13.10;57.70
40534;DHT22;26233;51.894;10.192;2024-02-15T00:58:20;13.00;57.60
40534;DHT22;26233;51.894;10.192;2024-02-15T01:00:48;13.10;57.70
40534;DHT22;26233;51.894;10.192;2024-02-15T01:03:17;13.10;57.70
40534;DHT22;26233;51.894;10.192;2024-02-15T01:05:45;13.10;57.70
40534;DHT22;26233;51.894;10.192;2024-02-15T01:08:12;13.10;57.70
40534;DHT22;26233;51.894;10.192;2024-02-15T01:10:39;13.10;57.80
40534;DHT22;26233;51.894;10.192;2024-02-15T01:13:06;13.10;57.70
40534;DHT22;26233;51.894;10.192;2024-02-15T01:15:34;13.10;58.30
40534;DHT22;26233;51.894;10.192;2024-02-15T01:18:03;13.10;57.70
40534;DHT22;26233;51.894;10.192;2024-02-15T01:20:32;13.10;57.70
40534;DHT22;26233;51.894;10.192;2024-02-15T01:22:59;13.10;57.70
40534;DHT22;26233;51.894;10.192;2024-02-15T01:25:26;13.10;57.70
40534;DHT22;26233;51.894;10.192;2024-02-15T01:27:54;13.10;57.70
40534;DHT22;26233;51.894;10.192;2024-02-15T01:30:21;13.10;57.70
40534;DHT22;26233;51.894;10.192;2024-02-15T01:32:48;13.10;57.60
40534;DHT22;26233;51.894;10.192;2024-02-15T01:35:16;13.10;57.70
40534;DHT22;26233;51.894;10.192;2024-02-15T01:37:45;13.10;58.30
40534;DHT22;26233;51.894;10.192;2024-02-15T01:40:12;13.10;57.70
40534;DHT22;26233;51.894;10.192;2024-02-15T01:42:39;13.10;58.30
40534;DHT22;26233;51.894;10.192;2024-02-15T01:45:07;13.10;57.80
40534;DHT22;26233;51.894;10.192;2024-02-15T01:47:37;13.10;57.70
40534;DHT22;26233;51.894;10.192;2024-02-15T01:50:06;13.10;57.80
40534;DHT22;26233;51.894;10.192;2024-02-15T01:52:34;13.20;57.90
40534;DHT22;26233;51.894;10.192;2024-02-15T01:55:05;13.20;57.90
40534;DHT22;26233;51.894;10.192;2024-02-15T01:57:34;13.20;57.90
40534;DHT22;26233;51.894;10.192;2024-02-15T02:00:04;13.20;57.80
40534;DHT22;26233;51.894;10.192;2024-02-15T02:02:35;13.20;57.80
40534;DHT22;26233;51.894;10.192;2024-02-15T02:05:06;13.20;57.80
40534;DHT22;26233;51.894;10.192;2024-02-15T02:07:33;13.20;57.80
40534;DHT22;26233;51.894;10.192;2024-02-15T02:10:03;13.30;57.90
40534;DHT22;26233;51.894;10.192;2024-02-15T02:12:31;13.20;57.80
40534;DHT22;26233;51.894;10.192;2024-02-15T02:14:58;13.20;57.80
40534;DHT22;26233;51.894;10.192;2024-02-15T02:17:25;13.20;57.80
40534;DHT22;26233;51.894;10.192;2024-02-15T02:19:52;13.20;57.80
40534;DHT22;26233;51.894;10.192;2024-02-15T02:22:20;13.20;57.90
40534;DHT22;26233;51.894;10.192;2024-02-15T02:25:03;13.20;57.90
40534;DHT22;26233;51.894;10.192;2024-02-15T02:27:34;13.20;58.00
40534;DHT22;26233;51.894;10.192;2024-02-15T02:30:03;13.20;57.90
40534;DHT22;26233;51.894;10.192;2024-02-15T02:32:35;13.20;57.90
40534;DHT22;26233;51.894;10.192;2024-02-15T02:35:04;13.20;57.90
40534;DHT22;26233;51.894;10.192;2024-02-15T02:37:33;13.20;57.90
40534;DHT22;26233;51.894;10.192;2024-02-15T02:40:04;13.20;58.00
40534;DHT22;26233;51.894;10.192;2024-02-15T02:42:34;13.20;58.00
40534;DHT22;26233;51.894;10.192;2024-02-15T02:45:02;13.20;58.00
40534;DHT22;26233;51.894;10.192;2024-02-15T02:47:30;13.20;58.00
40534;DHT22;26233;51.894;10.192;2024-02-15T02:49:58;13.30;58.00
40534;DHT22;26233;51.894;10.192;2024-02-15T02:52:25;13.30;58.00
40534;DHT22;26233;51.894;10.192;2024-02-15T02:54:52;13.30;58.10
40534;DHT22;26233;51.894;10.192;2024-02-15T02:57:21;13.30;58.10
40534;DHT22;26233;51.894;10.192;2024-02-15T02:59:48;13.30;58.10
40534;DHT22;26233;51.894;10.192;2024-02-15T03:02:15;13.30;58.10
40534;DHT22;26233;51.894;10.192;2024-02-15T03:04:42;13.30;58.10
40534;DHT22;26233;51.894;10.192;2024-02-15T03:07:09;13.30;58.10
40534;DHT22;26233;51.894;10.192;2024-02-15T03:09:42;13.30;58.10
40534;DHT22;26233;51.894;10.192;2024-02-15T03:12:09;13.30;58.10
40534;DHT22;26233;51.894;10.192;2024-02-15T03:14:38;13.30;58.20
40534;DHT22;26233;51.894;10.192;2024-02-15T03:17:07;13.30;58.10
40534;DHT22;26233;51.894;10.192;2024-02-15T03:19:35;13.30;58.20
40534;DHT22;26233;51.894;10.192;2024-02-15T03:22:02;13.30;58.20
40534;DHT22;26233;51.894;10.192;2024-02-15T03:24:29;13.40;58.20
40534;DHT22;26233;51.894;10.192;2024-02-15T03:26:56;13.40;58.30
40534;DHT22;26233;51.894;10.192;2024-02-15T03:29:23;13.40;58.20
40534;DHT22;26233;51.894;10.192;2024-02-15T03:31:52;13.40;58.20
40534;DHT22;26233;51.894;10.192;2024-02-15T03:34:20;13.40;58.20
40534;DHT22;26233;51.894;10.192;2024-02-15T03:36:48;13.40;58.20
40534;DHT22;26233;51.894;10.192;2024-02-15T03:39:19;13.40;58.20
40534;DHT22;26233;51.894;10.192;2024-02-15T03:41:49;13.40;58.10
40534;DHT22;26233;51.894;10.192;2024-02-15T03:44:17;13.40;58.10
40534;DHT22;26233;51.894;10.192;2024-02-15T03:46:45;13.40;58.10
40534;DHT22;26233;51.894;10.192;2024-02-15T03:49:18;13.30;58.00
40534;DHT22;26233;51.894;10.192;2024-02-15T03:51:45;13.30;58.10
40534;DHT22;26233;51.894;10.192;2024-02-15T03:54:12;13.30;58.10
40534;DHT22;26233;51.894;10.192;2024-02-15T03:56:46;13.30;58.20
40534;DHT22;26233;51.894;10.192;2024-02-15T03:59:17;13.30;58.20
40534;DHT22;26233;51.894;10.192;2024-02-15T04:01:47;13.30;58.20
40534;DHT22;26233;51.894;10.192;2024-02-15T04:04:14;13.30;58.30
40534;DHT22;26233;51.894;10.192;2024-02-15T04:06:43;13.30;58.20
40534;DHT22;26233;51.894;10.192;2024-02-15T04:09:10;13.30;58.30
40534;DHT22;26233;51.894;10.192;2024-02-15T04:11:37;13.30;58.30
40534;DHT22;26233;51.894;10.192;2024-02-15T04:14:04;13.30;58.30
40534;DHT22;26233;51.894;10.192;2024-02-15T04:16:31;13.30;58.40
40534;DHT22;26233;51.894;10.192;2024-02-15T04:19:01;13.30;58.50
40534;DHT22;26233;51.894;10.192;2024-02-15T04:21:29;13.30;58.40
40534;DHT22;26233;51.894;10.192;2024-02-15T04:23:58;13.30;58.50
40534;DHT22;26233;51.894;10.192;2024-02-15T04:26:25;13.30;58.50
40534;DHT22;26233;51.894;10.192;2024-02-15T04:28:53;13.30;58.50
40534;DHT22;26233;51.894;10.192;2024-02-15T04:31:20;13.30;58.50
40534;DHT22;26233;51.894;10.192;2024-02-15T04:33:52;13.40;58.60
40534;DHT22;26233;51.894;10.192;2024-02-15T04:36:20;13.30;58.50
40534;DHT22;26233;51.894;10.192;2024-02-15T04:38:49;13.40;58.60
40534;DHT22;26233;51.894;10.192;2024-02-15T04:41:18;13.40;58.70
40534;DHT22;26233;51.894;10.192;2024-02-15T04:43:49;13.40;58.70
40534;DHT22;26233;51.894;10.192;2024-02-15T04:46:16;13.40;58.70
40534;DHT22;26233;51.894;10.192;2024-02-15T04:48:43;13.50;58.70
40534;DHT22;26233;51.894;10.192;2024-02-15T04:51:10;13.40;58.60
40534;DHT22;26233;51.894;10.192;2024-02-15T04:53:38;13.40;58.60
40534;DHT22;26233;51.894;10.192;2024-02-15T04:56:07;13.40;58.70
40534;DHT22;26233;51.894;10.192;2024-02-15T04:58:40;13.50;58.70
40534;DHT22;26233;51.894;10.192;2024-02-15T05:01:14;13.50;58.70
40534;DHT22;26233;51.894;10.192;2024-02-15T05:03:42;13.50;58.70
40534;DHT22;26233;51.894;10.192;2024-02-15T05:06:10;13.50;58.70
40534;DHT22;26233;51.894;10.192;2024-02-15T05:08:38;13.50;58.60
40534;DHT22;26233;51.894;10.192;2024-02-15T05:11:08;13.50;58.60
40534;DHT22;26233;51.894;10.192;2024-02-15T05:13:42;13.50;58.60
40534;DHT22;26233;51.894;10.192;2024-02-15T05:16:10;13.50;58.60
40534;DHT22;26233;51.894;10.192;2024-02-15T05:18:37;13.50;58.60
40534;DHT22;26233;51.894;10.192;2024-02-15T05:21:05;13.50;58.60
40534;DHT22;26233;51.894;10.192;2024-02-15T05:23:35;13.50;58.70
40534;DHT22;26233;51.894;10.192;2024-02-15T05:26:03;13.50;58.70
40534;DHT22;26233;51.894;10.192;2024-02-15T05:28:31;13.50;58.70
40534;DHT22;26233;51.894;10.192;2024-02-15T05:31:13;13.50;58.70
40534;DHT22;26233;51.894;10.192;2024-02-15T05:33:42;13.60;58.90
40534;DHT22;26233;51.894;10.192;2024-02-15T05:36:11;13.50;58.70
40534;DHT22;26233;51.894;10.192;2024-02-15T05:38:38;13.50;58.70
40534;DHT22;26233;51.894;10.192;2024-02-15T05:41:06;13.60;58.80
40534;DHT22;26233;51.894;10.192;2024-02-15T05:43:34;13.60;58.90
40534;DHT22;26233;51.894;10.192;2024-02-15T05:46:02;13.60;58.80
40534;DHT22;26233;51.894;10.192;2024-02-15T05:48:31;13.60;58.80
40534;DHT22;26233;51.894;10.192;2024-02-15T05:51:00;13.70;58.90
40534;DHT22;26233;51.894;10.192;2024-02-15T05:53:28;13.60;58.80
40534;DHT22;26233;51.894;10.192;2024-02-15T05:55:56;13.60;58.80
40534;DHT22;26233;51.894;10.192;2024-02-15T05:58:24;13.60;58.80
40534;DHT22;26233;51.894;10.192;2024-02-15T06:00:51;13.60;58.80
40534;DHT22;26233;51.894;10.192;2024-02-15T06:03:19;13.70;58.90
40534;DHT22;26233;51.894;10.192;2024-02-15T06:05:50;13.70;58.80
40534;DHT22;26233;51.894;10.192;2024-02-15T06:08:17;13.70;58.80
40534;DHT22;26233;51.894;10.192;2024-02-15T06:10:45;13.70;58.90
40534;DHT22;26233;51.894;10.192;2024-02-15T06:13:13;13.80;59.00
40534;DHT22;26233;51.894;10.192;2024-02-15T06:15:40;13.70;58.90
40534;DHT22;26233;51.894;10.192;2024-02-15T06:18:07;13.80;59.00
40534;DHT22;26233;51.894;10.192;2024-02-15T06:20:37;13.80;58.90
40534;DHT22;26233;51.894;10.192;2024-02-15T06:23:06;13.80;58.90
40534;DHT22;26233;51.894;10.192;2024-02-15T06:25:35;13.80;58.90
40534;DHT22;26233;51.894;10.192;2024-02-15T06:28:02;13.80;58.90
40534;DHT22;26233;51.894;10.192;2024-02-15T06:30:39;13.80;58.90
40534;DHT22;26233;51.894;10.192;2024-02-15T06:33:24;13.80;58.80
40534;DHT22;26233;51.894;10.192;2024-02-15T06:36:06;13.90;58.90
40534;DHT22;26233;51.894;10.192;2024-02-15T06:38:52;13.90;58.90
40534;DHT22;26233;51.894;10.192;2024-02-15T06:41:37;13.80;58.70
40534;DHT22;26233;51.894;10.192;2024-02-15T06:44:06;13.90;58.90
40534;DHT22;26233;51.894;10.192;2024-02-15T06:46:33;13.90;58.80
40534;DHT22;26233;51.894;10.192;2024-02-15T06:49:00;13.90;58.80
40534;DHT22;26233;51.894;10.192;2024-02-15T06:51:30;13.90;58.80
40534;DHT22;26233;51.894;10.192;2024-02-15T06:53:59;13.90;58.80
40534;DHT22;26233;51.894;10.192;2024-02-15T06:56:27;13.90;58.70
40534;DHT22;26233;51.894;10.192;2024-02-15T06:58:54;13.90;58.80
40534;DHT22;26233;51.894;10.192;2024-02-15T07:01:23;13.90;58.70
40534;DHT22;26233;51.894;10.192;2024-02-15T07:03:51;13.90;58.70
40534;DHT22;26233;51.894;10.192;2024-02-15T07:06:18;13.90;58.70
40534;DHT22;26233;51.894;10.192;2024-02-15T07:08:46;13.90;58.70
40534;DHT22;26233;51.894;10.192;2024-02-15T07:11:15;13.90;58.70
40534;DHT22;26233;51.894;10.192;2024-02-15T07:13:42;13.90;58.70
40534;DHT22;26233;51.894;10.192;2024-02-15T07:16:09;13.90;58.70
40534;DHT22;26233;51.894;10.192;2024-02-15T07:18:37;14.00;58.70
40534;DHT22;26233;51.894;10.192;2024-02-15T07:21:04;14.00;58.70
40534;DHT22;26233;51.894;10.192;2024-02-15T07:23:36;14.00;58.70
40534;DHT22;26233;51.894;10.192;2024-02-15T07:26:04;14.00;58.70
40534;DHT22;26233;51.894;10.192;2024-02-15T07:28:32;14.00;58.70
40534;DHT22;26233;51.894;10.192;2024-02-15T07:30:59;14.00;58.60
40534;DHT22;26233;51.894;10.192;2024-02-15T07:33:28;14.00;58.70
40534;DHT22;26233;51.894;10.192;2024-02-15T07:35:55;14.00;58.60
40534;DHT22;26233;51.894;10.192;2024-02-15T07:38:22;14.00;58.60
40534;DHT22;26233;51.894;10.192;2024-02-15T07:40:51;14.00;58.70
40534;DHT22;26233;51.894;10.192;2024-02-15T07:43:18;14.00;58.60
40534;DHT22;26233;51.894;10.192;2024-02-15T07:45:47;14.00;58.60
40534;DHT22;26233;51.894;10.192;2024-02-15T07:48:14;14.10;58.80
40534;DHT22;26233;51.894;10.192;2024-02-15T07:50:42;14.10;58.80
40534;DHT22;26233;51.894;10.192;2024-02-15T07:53:10;14.10;58.80
40534;DHT22;26233;51.894;10.192;2024-02-15T07:55:39;14.10;58.80
40534;DHT22;26233;51.894;10.192;2024-02-15T07:58:07;14.20;59.00
40534;DHT22;26233;51.894;10.192;2024-02-15T08:00:34;14.20;59.00
40534;DHT22;26233;51.894;10.192;2024-02-15T08:03:03;14.30;59.10
40534;DHT22;26233;51.894;10.192;2024-02-15T08:05:30;14.30;59.00
40534;DHT22;26233;51.894;10.192;2024-02-15T08:07:57;14.40;59.00
40534;DHT22;26233;51.894;10.192;2024-02-15T08:10:25;14.40;59.00
40534;DHT22;26233;51.894;10.192;2024-02-15T08:12:53;14.40;59.40
40534;DHT22;26233;51.894;10.192;2024-02-15T08:15:23;14.40;58.70
40534;DHT22;26233;51.894;10.192;2024-02-15T08:17:53;14.50;58.70
40534;DHT22;26233;51.894;10.192;2024-02-15T08:20:22;14.50;58.70
40534;DHT22;26233;51.894;10.192;2024-02-15T08:22:50;14.50;58.70
40534;DHT22;26233;51.894;10.192;2024-02-15T08:25:17;14.60;58.80
40534;DHT22;26233;51.894;10.192;2024-02-15T08:27:47;14.60;58.80
40534;DHT22;26233;51.894;10.192;2024-02-15T08:30:16;14.60;58.80
40534;DHT22;26233;51.894;10.192;2024-02-15T08:32:44;14.60;58.80
40534;DHT22;26233;51.894;10.192;2024-02-15T08:35:13;14.70;58.70
40534;DHT22;26233;51.894;10.192;2024-02-15T08:37:42;14.70;58.70
40534;DHT22;26233;51.894;10.192;2024-02-15T08:40:12;14.80;59.20
40534;DHT22;26233;51.894;10.192;2024-02-15T08:42:41;14.80;58.70
40534;DHT22;26233;51.894;10.192;2024-02-15T08:45:10;14.80;58.70
40534;DHT22;26233;51.894;10.192;2024-02-15T08:47:38;14.80;58.70
40534;DHT22;26233;51.894;10.192;2024-02-15T08:50:08;14.90;58.90
40534;DHT22;26233;51.894;10.192;2024-02-15T08:52:36;14.90;58.80
40534;DHT22;26233;51.894;10.192;2024-02-15T08:55:06;15.00;58.90
40534;DHT22;26233;51.894;10.192;2024-02-15T08:57:35;15.00;58.80
40534;DHT22;26233;51.894;10.192;2024-02-15T09:00:04;15.10;58.80
40534;DHT22;26233;51.894;10.192;2024-02-15T09:02:35;15.10;58.60
40534;DHT22;26233;51.894;10.192;2024-02-15T09:05:03;15.10;58.40
40534;DHT22;26233;51.894;10.192;2024-02-15T09:07:30;15.10;58.30
40534;DHT22;26233;51.894;10.192;2024-02-15T09:09:58;15.10;58.10
40534;DHT22;26233;51.894;10.192;2024-02-15T09:12:27;15.10;58.10
40534;DHT22;26233;51.894;10.192;2024-02-15T09:14:54;15.10;58.00
40534;DHT22;26233;51.894;10.192;2024-02-15T09:17:21;15.10;58.00
40534;DHT22;26233;51.894;10.192;2024-02-15T09:19:48;15.10;57.90
40534;DHT22;26233;51.894;10.192;2024-02-15T09:22:16;15.00;57.90
40534;DHT22;26233;51.894;10.192;2024-02-15T09:24:44;15.10;58.00
40534;DHT22;26233;51.894;10.192;2024-02-15T09:27:11;15.10;58.00
40534;DHT22;26233;51.894;10.192;2024-02-15T09:29:39;15.00;57.90
40534;DHT22;26233;51.894;10.192;2024-02-15T09:32:08;15.10;57.90
40534;DHT22;26233;51.894;10.192;2024-02-15T09:34:35;15.10;57.90
40534;DHT22;26233;51.894;10.192;2024-02-15T09:37:03;15.10;57.90
40534;DHT22;26233;51.894;10.192;2024-02-15T09:39:30;15.00;57.70
40534;DHT22;26233;51.894;10.192;2024-02-15T09:41:58;15.00;57.80
40534;DHT22;26233;51.894;10.192;2024-02-15T09:44:25;15.00;58.40
40534;DHT22;26233;51.894;10.192;2024-02-15T09:47:02;15.00;57.80
40534;DHT22;26233;51.894;10.192;2024-02-15T09:49:35;15.00;57.80
40534;DHT22;26233;51.894;10.192;2024-02-15T09:52:06;15.00;57.90
40534;DHT22;26233;51.894;10.192;2024-02-15T09:54:39;15.00;58.00
40534;DHT22;26233;51.894;10.192;2024-02-15T09:57:09;15.00;58.00
40534;DHT22;26233;51.894;10.192;2024-02-15T09:59:37;15.10;58.20
40534;DHT22;26233;51.894;10.192;2024-02-15T10:02:07;15.10;58.20
40534;DHT22;26233;51.894;10.192;2024-02-15T10:04:37;15.10;58.00
40534;DHT22;26233;51.894;10.192;2024-02-15T10:07:05;15.10;57.90
40534;DHT22;26233;51.894;10.192;2024-02-15T10:09:34;15.10;57.90
40534;DHT22;26233;51.894;10.192;2024-02-15T10:12:03;15.10;57.90
40534;DHT22;26233;51.894;10.192;2024-02-15T10:14:34;15.10;57.90
40534;DHT22;26233;51.894;10.192;2024-02-15T10:17:08;15.10;57.90
40534;DHT22;26233;51.894;10.192;2024-02-15T10:19:37;15.10;57.90
40534;DHT22;26233;51.894;10.192;2024-02-15T10:22:09;15.10;58.10
40534;DHT22;26233;51.894;10.192;2024-02-15T10:24:37;15.20;58.10
40534;DHT22;26233;51.894;10.192;2024-02-15T10:27:05;15.20;58.10
40534;DHT22;26233;51.894;10.192;2024-02-15T10:29:33;15.20;58.10
40534;DHT22;26233;51.894;10.192;2024-02-15T10:32:01;15.30;58.20
40534;DHT22;26233;51.894;10.192;2024-02-15T10:34:31;15.30;58.30
40534;DHT22;26233;51.894;10.192;2024-02-15T10:37:11;15.40;58.20
40534;DHT22;26233;51.894;10.192;2024-02-15T10:39:38;15.40;58.10
40534;DHT22;26233;51.894;10.192;2024-02-15T10:42:07;15.50;58.40
40534;DHT22;26233;51.894;10.192;2024-02-15T10:44:36;15.60;58.60
40534;DHT22;26233;51.894;10.192;2024-02-15T10:47:07;15.70;58.90
40534;DHT22;26233;51.894;10.192;2024-02-15T10:49:36;15.80;58.90
40534;DHT22;26233;51.894;10.192;2024-02-15T10:52:04;16.00;58.70
40534;DHT22;26233;51.894;10.192;2024-02-15T10:54:47;16.00;59.10
40534;DHT22;26233;51.894;10.192;2024-02-15T10:57:20;16.00;58.20
40534;DHT22;26233;51.894;10.192;2024-02-15T10:59:54;16.10;58.20
40534;DHT22;26233;51.894;10.192;2024-02-15T11:02:27;16.20;57.90
40534;DHT22;26233;51.894;10.192;2024-02-15T11:05:02;16.10;57.80
40534;DHT22;26233;51.894;10.192;2024-02-15T11:07:32;16.10;57.30
40534;DHT22;26233;51.894;10.192;2024-02-15T11:09:59;16.10;57.40
40534;DHT22;26233;51.894;10.192;2024-02-15T11:12:28;16.10;57.40
40534;DHT22;26233;51.894;10.192;2024-02-15T11:14:57;16.10;57.40
40534;DHT22;26233;51.894;10.192;2024-02-15T11:17:46;16.00;57.40
40534;DHT22;26233;51.894;10.192;2024-02-15T11:20:52;16.00;57.00
40534;DHT22;26233;51.894;10.192;2024-02-15T11:23:25;15.90;56.90
40534;DHT22;26233;51.894;10.192;2024-02-15T11:25:53;15.90;57.10
40534;DHT22;26233;51.894;10.192;2024-02-15T11:28:38;15.80;57.10
40534;DHT22;26233;51.894;10.192;2024-02-15T11:31:09;15.70;57.10
40534;DHT22;26233;51.894;10.192;2024-02-15T11:33:39;15.70;57.30
40534;DHT22;26233;51.894;10.192;2024-02-15T11:36:12;15.70;57.40
40534;DHT22;26233;51.894;10.192;2024-02-15T11:38:40;15.60;57.50
40534;DHT22;26233;51.894;10.192;2024-02-15T11:41:09;15.60;57.70
40534;DHT22;26233;51.894;10.192;2024-02-15T11:44:01;15.60;57.90
40534;DHT22;26233;51.894;10.192;2024-02-15T11:46:28;15.70;58.00
40534;DHT22;26233;51.894;10.192;2024-02-15T11:48:58;15.70;58.10
40534;DHT22;26233;51.894;10.192;2024-02-15T11:51:31;15.70;58.10
40534;DHT22;26233;51.894;10.192;2024-02-15T11:54:03;15.70;57.90
40534;DHT22;26233;51.894;10.192;2024-02-15T11:59:20;15.80;58.00
40534;DHT22;26233;51.894;10.192;2024-02-15T12:01:57;15.80;57.90
40534;DHT22;26233;51.894;10.192;2024-02-15T12:04:42;15.80;57.90
40534;DHT22;26233;51.894;10.192;2024-02-15T12:07:29;15.80;57.90
40534;DHT22;26233;51.894;10.192;2024-02-15T12:10:17;15.80;58.00
40534;DHT22;26233;51.894;10.192;2024-02-15T12:13:02;15.80;58.20
40534;DHT22;26233;51.894;10.192;2024-02-15T12:15:56;15.90;58.40
40534;DHT22;26233;51.894;10.192;2024-02-15T12:18:43;15.90;58.20
40534;DHT22;26233;51.894;10.192;2024-02-15T12:21:16;15.90;58.00
40534;DHT22;26233;51.894;10.192;2024-02-15T12:23:45;16.00;57.90
40534;DHT22;26233;51.894;10.192;2024-02-15T12:26:13;16.00;57.70
40534;DHT22;26233;51.894;10.192;2024-02-15T12:28:41;16.00;57.60
40534;DHT22;26233;51.894;10.192;2024-02-15T12:31:09;15.90;57.60
40534;DHT22;26233;51.894;10.192;2024-02-15T12:33:39;16.00;57.50
40534;DHT22;26233;51.894;10.192;2024-02-15T12:36:07;15.90;57.10
40534;DHT22;26233;51.894;10.192;2024-02-15T12:38:35;15.80;57.70
40534;DHT22;26233;51.894;10.192;2024-02-15T12:41:18;15.70;57.00
40534;DHT22;26233;51.894;10.192;2024-02-15T12:43:46;15.60;57.00
40534;DHT22;26233;51.894;10.192;2024-02-15T12:46:18;15.60;57.00
40534;DHT22;26233;51.894;10.192;2024-02-15T12:48:46;15.50;57.10
40534;DHT22;26233;51.894;10.192;2024-02-15T12:51:14;15.40;57.00
40534;DHT22;26233;51.894;10.192;2024-02-15T12:53:42;15.30;57.10
40534;DHT22;26233;51.894;10.192;2024-02-15T12:56:19;15.20;57.10
40534;DHT22;26233;51.894;10.192;2024-02-15T12:58:47;15.10;57.20
40534;DHT22;26233;51.894;10.192;2024-02-15T13:01:14;15.00;57.10
40534;DHT22;26233;51.894;10.192;2024-02-15T13:03:42;14.90;57.10
40534;DHT22;26233;51.894;10.192;2024-02-15T13:06:09;14.80;57.10
40534;DHT22;26233;51.894;10.192;2024-02-15T13:08:36;14.70;57.10
40534;DHT22;26233;51.894;10.192;2024-02-15T13:11:03;14.60;57.10
40534;DHT22;26233;51.894;10.192;2024-02-15T13:13:32;14.50;57.30
40534;DHT22;26233;51.894;10.192;2024-02-15T13:16:00;14.50;57.50
40534;DHT22;26233;51.894;10.192;2024-02-15T13:18:27;14.40;57.60
40534;DHT22;26233;51.894;10.192;2024-02-15T13:20:55;14.40;57.70
40534;DHT22;26233;51.894;10.192;2024-02-15T13:23:22;14.30;57.80
40534;DHT22;26233;51.894;10.192;2024-02-15T13:25:51;14.30;58.00
40534;DHT22;26233;51.894;10.192;2024-02-15T13:28:22;14.30;58.00
40534;DHT22;26233;51.894;10.192;2024-02-15T13:30:51;14.30;58.10
40534;DHT22;26233;51.894;10.192;2024-02-15T13:33:21;14.30;58.20
40534;DHT22;26233;51.894;10.192;2024-02-15T13:35:49;14.30;58.20
40534;DHT22;26233;51.894;10.192;2024-02-15T13:38:16;14.20;58.20
40534;DHT22;26233;51.894;10.192;2024-02-15T13:40:48;14.20;58.20
40534;DHT22;26233;51.894;10.192;2024-02-15T13:43:17;14.20;58.30
40534;DHT22;26233;51.894;10.192;2024-02-15T13:45:45;14.20;58.40
40534;DHT22;26233;51.894;10.192;2024-02-15T13:48:13;14.30;58.60
40534;DHT22;26233;51.894;10.192;2024-02-15T13:50:41;14.30;58.70
40534;DHT22;26233;51.894;10.192;2024-02-15T13:53:10;14.30;58.70
40534;DHT22;26233;51.894;10.192;2024-02-15T13:55:39;14.30;58.70
40534;DHT22;26233;51.894;10.192;2024-02-15T13:58:06;14.40;58.80
40534;DHT22;26233;51.894;10.192;2024-02-15T14:00:37;14.40;58.80
40534;DHT22;26233;51.894;10.192;2024-02-15T14:03:08;14.40;58.80
40534;DHT22;26233;51.894;10.192;2024-02-15T14:05:37;14.40;58.90
40534;DHT22;26233;51.894;10.192;2024-02-15T14:08:05;14.40;58.90
40534;DHT22;26233;51.894;10.192;2024-02-15T14:10:35;14.50;59.00
40534;DHT22;26233;51.894;10.192;2024-02-15T14:13:03;14.50;59.00
40534;DHT22;26233;51.894;10.192;2024-02-15T14:15:32;14.50;59.10
40534;DHT22;26233;51.894;10.192;2024-02-15T14:18:03;14.50;59.10
40534;DHT22;26233;51.894;10.192;2024-02-15T14:20:31;14.60;59.20
40534;DHT22;26233;51.894;10.192;2024-02-15T14:22:59;14.60;59.10
40534;DHT22;26233;51.894;10.192;2024-02-15T14:25:31;14.60;59.10
40534;DHT22;26233;51.894;10.192;2024-02-15T14:27:59;14.70;59.20
40534;DHT22;26233;51.894;10.192;2024-02-15T14:30:26;14.60;59.10
40534;DHT22;26233;51.894;10.192;2024-02-15T14:33:12;14.70;59.20
40534;DHT22;26233;51.894;10.192;2024-02-15T14:35:41;14.70;59.10
40534;DHT22;26233;51.894;10.192;2024-02-15T14:38:11;14.70;59.10
40534;DHT22;26233;51.894;10.192;2024-02-15T14:40:41;14.70;59.10
40534;DHT22;26233;51.894;10.192;2024-02-15T14:43:10;14.70;59.10
40534;DHT22;26233;51.894;10.192;2024-02-15T14:45:39;14.70;59.10
40534;DHT22;26233;51.894;10.192;2024-02-15T14:48:07;14.70;59.00
40534;DHT22;26233;51.894;10.192;2024-02-15T14:50:35;14.70;59.10
40534;DHT22;26233;51.894;10.192;2024-02-15T14:53:02;14.80;59.20
40534;DHT22;26233;51.894;10.192;2024-02-15T14:55:31;14.70;59.10
40534;DHT22;26233;51.894;10.192;2024-02-15T14:57:59;14.80;59.30
40534;DHT22;26233;51.894;10.192;2024-02-15T15:00:26;14.80;59.30
40534;DHT22;26233;51.894;10.192;2024-02-15T15:02:54;14.80;59.30
40534;DHT22;26233;51.894;10.192;2024-02-15T15:05:22;14.80;59.20
40534;DHT22;26233;51.894;10.192;2024-02-15T15:08:07;14.80;59.20
40534;DHT22;26233;51.894;10.192;2024-02-15T15:10:55;14.80;59.10
40534;DHT22;26233;51.894;10.192;2024-02-15T15:13:39;14.80;59.10
40534;DHT22;26233;51.894;10.192;2024-02-15T15:16:07;14.90;59.20
40534;DHT22;26233;51.894;10.192;2024-02-15T15:18:40;14.90;59.20
40534;DHT22;26233;51.894;10.192;2024-02-15T15:21:07;14.90;59.20
40534;DHT22;26233;51.894;10.192;2024-02-15T15:23:34;14.90;59.10
40534;DHT22;26233;51.894;10.192;2024-02-15T15:26:03;14.90;59.00
40534;DHT22;26233;51.894;10.192;2024-02-15T15:28:30;14.90;59.00
40534;DHT22;26233;51.894;10.192;2024-02-15T15:30:57;14.90;58.90
40534;DHT22;26233;51.894;10.192;2024-02-15T15:33:25;15.00;59.00